createdAt,value
2018-11-03T00:00:21.534Z,36.50
2018-11-03T00:02:49.961Z,36.80
2018-11-03T00:05:18.379Z,37.10
2018-11-03T00:07:47.005Z,37.20
2018-11-03T00:10:15.371Z,37.30
2018-11-03T00:12:43.703Z,37.50
2018-11-03T00:15:12.042Z,37.70
2018-11-03T00:17:40.418Z,37.50
2018-11-03T00:20:08.892Z,37.70
2018-11-03T00:22:37.327Z,37.80
2018-11-03T00:25:06.988Z,37.70
2018-11-03T00:27:35.583Z,37.70
2018-11-03T00:30:04.870Z,37.90
2018-11-03T00:32:33.171Z,37.90
2018-11-03T00:35:01.500Z,37.90
2018-11-03T00:37:29.780Z,37.80
2018-11-03T00:39:58.147Z,37.90
2018-11-03T00:42:26.625Z,37.90
2018-11-03T00:44:54.912Z,38.00
2018-11-03T00:47:23.288Z,38.00
2018-11-03T00:49:51.618Z,38.00
2018-11-03T00:52:19.939Z,37.90
2018-11-03T00:54:48.290Z,38.10
2018-11-03T00:57:16.606Z,38.00
2018-11-03T00:59:44.925Z,38.00
2018-11-03T01:02:13.243Z,38.10
2018-11-03T01:04:41.629Z,37.80
2018-11-03T01:07:09.948Z,37.80
2018-11-03T01:09:38.280Z,37.90
2018-11-03T01:12:06.637Z,38.00
2018-11-03T01:14:35.320Z,38.20
2018-11-03T01:17:03.855Z,38.10
2018-11-03T01:19:32.307Z,37.90
2018-11-03T01:22:00.620Z,37.80
2018-11-03T01:24:28.912Z,37.70
2018-11-03T01:26:57.228Z,37.70
2018-11-03T01:29:25.631Z,37.60
2018-11-03T01:31:53.970Z,37.90
2018-11-03T01:34:22.417Z,38.00
2018-11-03T01:36:50.727Z,37.90
2018-11-03T01:39:19.102Z,37.90
2018-11-03T01:41:47.440Z,38.00
2018-11-03T01:44:15.822Z,38.50
2018-11-03T01:46:44.186Z,38.20
2018-11-03T01:49:12.547Z,38.20
2018-11-03T01:51:41.317Z,38.40
2018-11-03T01:54:09.835Z,38.30
2018-11-03T01:56:38.172Z,38.20
2018-11-03T01:59:06.539Z,38.30
2018-11-03T02:01:34.951Z,38.40
2018-11-03T02:04:03.477Z,38.60
2018-11-03T02:06:31.792Z,39.30
2018-11-03T02:09:00.084Z,38.30
2018-11-03T02:11:28.386Z,38.40
2018-11-03T02:13:56.695Z,38.50
2018-11-03T02:16:25.134Z,38.60
2018-11-03T02:18:53.437Z,38.50
2018-11-03T02:21:21.820Z,38.80
2018-11-03T02:23:50.124Z,38.90
2018-11-03T02:26:18.481Z,39.00
2018-11-03T02:28:47.047Z,39.20
2018-11-03T02:31:15.379Z,39.00
2018-11-03T02:33:43.811Z,39.10
2018-11-03T02:36:12.096Z,39.10
2018-11-03T02:38:40.435Z,39.00
2018-11-03T02:41:08.791Z,39.10
2018-11-03T02:43:37.122Z,39.10
2018-11-03T02:46:05.658Z,39.00
2018-11-03T02:48:33.984Z,39.00
2018-11-03T02:51:02.518Z,39.20
2018-11-03T02:53:31.067Z,39.10
2018-11-03T02:55:59.348Z,39.10
2018-11-03T02:58:27.686Z,39.20
2018-11-03T03:00:56.061Z,39.30
2018-11-03T03:03:24.372Z,39.30
2018-11-03T03:05:52.720Z,39.40
2018-11-03T03:08:21.039Z,39.60
2018-11-03T03:10:49.396Z,39.60
2018-11-03T03:13:17.795Z,39.60
2018-11-03T03:15:46.103Z,39.50
2018-11-03T03:18:14.444Z,39.60
2018-11-03T03:20:42.736Z,40.30
2018-11-03T03:23:11.085Z,39.80
2018-11-03T03:25:39.506Z,39.90
2018-11-03T03:28:07.924Z,40.20
2018-11-03T03:30:36.211Z,40.20
2018-11-03T03:33:04.556Z,40.20
2018-11-03T03:35:32.935Z,40.40
2018-11-03T03:38:01.247Z,40.40
2018-11-03T03:40:30.192Z,40.50
2018-11-03T03:42:58.679Z,40.40
2018-11-03T03:45:27.056Z,40.40
2018-11-03T03:47:55.379Z,40.40
2018-11-03T03:50:23.820Z,40.60
2018-11-03T03:52:52.299Z,40.80
2018-11-03T03:55:20.833Z,40.80
2018-11-03T03:57:49.140Z,40.90
2018-11-03T04:00:17.524Z,40.90
2018-11-03T04:02:45.884Z,41.00
2018-11-03T04:05:14.195Z,41.20
2018-11-03T04:07:42.492Z,41.10
2018-11-03T04:10:11.109Z,41.30
2018-11-03T04:12:39.681Z,41.30
2018-11-03T04:15:08.120Z,41.40
2018-11-03T04:17:36.466Z,41.40
2018-11-03T04:20:05.664Z,41.40
2018-11-03T04:22:33.961Z,41.60
2018-11-03T04:25:02.288Z,41.60
2018-11-03T04:27:30.697Z,41.70
2018-11-03T04:29:59.071Z,41.70
2018-11-03T04:32:27.496Z,41.70
2018-11-03T04:34:55.979Z,41.90
2018-11-03T04:37:24.310Z,41.80
2018-11-03T04:39:52.620Z,41.80
2018-11-03T04:42:20.904Z,41.80
2018-11-03T04:44:49.477Z,42.00
2018-11-03T04:47:17.935Z,42.20
2018-11-03T04:49:46.460Z,42.10
2018-11-03T04:52:14.936Z,42.10
2018-11-03T04:54:43.296Z,42.10
2018-11-03T04:57:11.612Z,42.20
2018-11-03T04:59:39.903Z,42.20
2018-11-03T05:02:08.270Z,42.20
2018-11-03T05:04:36.786Z,42.20
2018-11-03T05:07:05.544Z,42.40
2018-11-03T05:09:33.852Z,42.40
2018-11-03T05:12:03.165Z,42.40
2018-11-03T05:14:31.423Z,42.40
2018-11-03T05:16:59.800Z,42.50
2018-11-03T05:19:28.213Z,42.40
2018-11-03T05:21:56.768Z,42.40
2018-11-03T05:24:25.124Z,42.50
2018-11-03T05:26:53.413Z,42.50
2018-11-03T05:29:21.895Z,42.70
2018-11-03T05:31:50.224Z,42.60
2018-11-03T05:34:18.610Z,42.70
2018-11-03T05:36:46.968Z,42.60
2018-11-03T05:39:15.430Z,42.50
2018-11-03T05:41:44.014Z,42.70
2018-11-03T05:44:12.774Z,43.60
2018-11-03T05:46:41.416Z,43.20
2018-11-03T05:49:10.072Z,43.00
2018-11-03T05:51:38.692Z,43.20
2018-11-03T05:54:07.360Z,43.10
2018-11-03T05:56:35.984Z,43.20
2018-11-03T05:59:04.405Z,43.30
2018-11-03T06:01:32.704Z,43.40
2018-11-03T06:04:01.149Z,43.70
2018-11-03T06:06:29.484Z,43.80
2018-11-03T06:08:57.907Z,43.80
2018-11-03T06:11:26.224Z,44.30
2018-11-03T06:13:54.724Z,44.60
2018-11-03T06:16:23.101Z,47.30
2018-11-03T06:18:51.415Z,52.20
2018-11-03T06:21:20.005Z,52.00
2018-11-03T06:23:48.600Z,53.60
2018-11-03T06:26:16.904Z,54.90
2018-11-03T06:28:45.219Z,52.70
2018-11-03T06:31:13.543Z,53.60
2018-11-03T06:33:41.996Z,54.10
2018-11-03T06:36:10.430Z,49.20
2018-11-03T06:38:38.843Z,48.60
2018-11-03T06:41:07.175Z,51.70
2018-11-03T06:43:35.511Z,53.10
2018-11-03T06:46:03.903Z,53.40
2018-11-03T06:48:32.235Z,53.30
2018-11-03T06:51:00.583Z,48.40
2018-11-03T06:53:28.897Z,47.20
2018-11-03T06:55:57.205Z,45.10
2018-11-03T06:58:25.567Z,44.70
2018-11-03T07:00:53.873Z,44.60
2018-11-03T07:03:22.236Z,44.60
2018-11-03T07:05:50.656Z,44.30
2018-11-03T07:08:18.996Z,44.70
2018-11-03T07:10:47.331Z,47.90
2018-11-03T07:13:16.095Z,51.40
2018-11-03T07:15:44.321Z,52.20
2018-11-03T07:18:12.744Z,51.30
2018-11-03T07:20:41.305Z,51.80
2018-11-03T07:23:10.052Z,51.70
2018-11-03T07:25:38.635Z,51.30
2018-11-03T07:28:07.184Z,50.90
2018-11-03T07:30:35.518Z,50.50
2018-11-03T07:33:04.123Z,49.90
2018-11-03T07:35:32.467Z,49.10
2018-11-03T07:38:00.798Z,47.50
2018-11-03T07:40:29.084Z,47.90
2018-11-03T07:42:57.439Z,47.70
2018-11-03T07:45:25.827Z,47.40
2018-11-03T07:47:54.280Z,46.90
2018-11-03T07:50:22.563Z,45.50
2018-11-03T07:52:50.855Z,45.60
2018-11-03T07:55:19.219Z,45.50
2018-11-03T07:57:47.505Z,43.60
2018-11-03T08:00:16.092Z,41.00
2018-11-03T08:02:44.636Z,40.10
2018-11-03T08:05:13.265Z,39.40
2018-11-03T08:07:41.562Z,38.80
2018-11-03T08:10:11.348Z,38.00
2018-11-03T08:12:40.073Z,38.50
2018-11-03T08:15:09.610Z,38.00
2018-11-03T08:17:38.423Z,38.20
2018-11-03T08:20:08.377Z,40.30
2018-11-03T08:22:36.835Z,37.60
2018-11-03T08:25:05.924Z,39.30
2018-11-03T08:27:34.257Z,37.80
2018-11-03T08:30:02.563Z,37.30
2018-11-03T08:32:31.221Z,37.40
2018-11-03T08:34:59.591Z,37.40
2018-11-03T08:37:28.738Z,37.20
2018-11-03T08:39:57.324Z,39.10
2018-11-03T08:42:25.784Z,39.40
2018-11-03T08:44:54.335Z,37.40
2018-11-03T08:47:22.629Z,40.20
2018-11-03T08:49:51.097Z,39.90
2018-11-03T08:52:19.415Z,39.70
2018-11-03T08:54:47.760Z,38.90
2018-11-03T08:57:16.164Z,38.70
2018-11-03T08:59:44.653Z,38.10
2018-11-03T09:02:12.861Z,37.30
2018-11-03T09:04:41.228Z,36.40
2018-11-03T09:07:09.691Z,38.40
2018-11-03T09:09:37.945Z,37.30
2018-11-03T09:12:06.441Z,36.30
2018-11-03T09:14:34.895Z,37.40
2018-11-03T09:17:03.161Z,36.60
2018-11-03T09:19:31.504Z,36.30
2018-11-03T09:21:59.811Z,35.10
2018-11-03T09:24:28.231Z,33.50
2018-11-03T09:26:56.725Z,34.90
2018-11-03T09:29:25.024Z,33.60
2018-11-03T09:31:53.431Z,35.30
2018-11-03T09:34:21.774Z,33.60
2018-11-03T09:36:50.252Z,33.40
2018-11-03T09:39:18.688Z,37.00
2018-11-03T09:41:47.206Z,35.50
2018-11-03T09:44:15.604Z,29.40
2018-11-03T09:46:43.979Z,29.40
2018-11-03T09:49:12.308Z,28.80
2018-11-03T09:51:40.727Z,29.70
2018-11-03T09:54:09.079Z,28.90
2018-11-03T09:56:37.619Z,30.40
2018-11-03T09:59:05.868Z,29.80
2018-11-03T10:01:34.240Z,30.20
2018-11-03T10:04:02.557Z,29.70
2018-11-03T10:06:31.012Z,30.10
2018-11-03T10:08:59.339Z,30.70
2018-11-03T10:11:27.662Z,31.00
2018-11-03T10:13:55.992Z,30.50
2018-11-03T10:16:24.311Z,32.40
2018-11-03T10:18:52.722Z,30.10
2018-11-03T10:21:21.159Z,30.20
2018-11-03T10:23:49.456Z,29.80
2018-11-03T10:26:17.793Z,30.80
2018-11-03T10:28:46.295Z,30.20
2018-11-03T10:31:14.688Z,29.00
2018-11-03T10:33:43.193Z,28.90
2018-11-03T10:36:11.489Z,29.00
2018-11-03T10:38:39.988Z,28.90
2018-11-03T10:41:08.381Z,29.00
2018-11-03T10:43:36.902Z,29.20
2018-11-03T10:46:05.602Z,29.20
2018-11-03T10:48:33.956Z,29.30
2018-11-03T10:51:02.293Z,29.30
2018-11-03T10:53:30.652Z,29.50
2018-11-03T10:55:58.913Z,29.60
2018-11-03T10:58:27.276Z,29.70
2018-11-03T11:01:00.993Z,29.60
2018-11-03T11:03:34.718Z,29.70
2018-11-03T11:06:08.500Z,29.80
2018-11-03T11:08:42.209Z,29.50
2018-11-03T11:11:16.103Z,29.30
2018-11-03T11:13:45.033Z,29.30
2018-11-03T11:16:13.343Z,29.30
2018-11-03T11:18:41.724Z,29.30
2018-11-03T11:21:10.146Z,29.20
2018-11-03T11:23:38.657Z,29.00
2018-11-03T11:26:06.955Z,28.90
2018-11-03T11:28:35.272Z,29.80
2018-11-03T11:31:03.664Z,29.10
2018-11-03T11:33:32.021Z,29.30
2018-11-03T11:36:00.344Z,29.20
2018-11-03T11:38:28.749Z,29.20
2018-11-03T11:40:57.116Z,29.00
2018-11-03T11:43:25.444Z,29.00
2018-11-03T11:45:53.794Z,29.20
2018-11-03T11:48:22.163Z,29.20
2018-11-03T11:50:50.553Z,29.20
2018-11-03T11:53:18.952Z,29.10
2018-11-03T11:55:48.179Z,29.20
2018-11-03T11:58:16.534Z,29.20
2018-11-03T12:00:44.994Z,28.80
2018-11-03T12:03:13.271Z,29.70
2018-11-03T12:05:41.693Z,29.20
2018-11-03T12:08:10.108Z,29.60
2018-11-03T12:10:38.481Z,29.10
2018-11-03T12:13:07.047Z,29.20
2018-11-03T12:15:35.467Z,29.10
2018-11-03T12:18:03.845Z,29.00
2018-11-03T12:20:32.200Z,29.00
2018-11-03T12:23:00.711Z,29.30
2018-11-03T12:25:29.128Z,29.40
2018-11-03T12:27:57.399Z,29.30
2018-11-03T12:30:25.740Z,29.10
2018-11-03T12:32:54.089Z,29.10
2018-11-03T12:35:22.517Z,28.80
2018-11-03T12:37:50.826Z,28.60
2018-11-03T12:40:19.228Z,28.40
2018-11-03T12:42:47.612Z,28.40
2018-11-03T12:45:16.024Z,28.60
2018-11-03T12:47:44.409Z,28.60
2018-11-03T12:50:14.666Z,28.70
2018-11-03T12:52:43.288Z,28.80
2018-11-03T12:55:11.896Z,28.70
2018-11-03T12:57:41.006Z,28.70
2018-11-03T13:00:11.979Z,28.60
2018-11-03T13:02:41.283Z,28.50
2018-11-03T13:05:10.039Z,28.80
2018-11-03T13:07:39.459Z,28.70
2018-11-03T13:10:09.058Z,28.60
2018-11-03T13:12:38.342Z,28.70
2018-11-03T13:15:08.421Z,28.50
2018-11-03T13:17:37.356Z,28.50
2018-11-03T13:20:07.307Z,28.50
2018-11-03T13:22:35.795Z,28.40
2018-11-03T13:25:04.415Z,28.40
2018-11-03T13:27:32.765Z,28.30
2018-11-03T13:30:01.124Z,28.00
2018-11-03T13:32:29.496Z,27.80
2018-11-03T13:34:57.936Z,28.00
2018-11-03T13:37:26.172Z,28.40
2018-11-03T13:39:54.639Z,29.00
2018-11-03T13:42:22.931Z,28.90
2018-11-03T13:44:51.278Z,28.60
2018-11-03T13:47:19.729Z,28.70
2018-11-03T13:49:47.886Z,28.40
2018-11-03T13:52:16.264Z,28.30
2018-11-03T13:54:44.737Z,28.30
2018-11-03T13:57:13.109Z,29.00
2018-11-03T13:59:41.627Z,28.70
2018-11-03T14:02:09.967Z,29.00
2018-11-03T14:04:38.506Z,29.30
2018-11-03T14:07:07.033Z,29.80
2018-11-03T14:09:35.520Z,30.20
2018-11-03T14:12:03.891Z,30.60
2018-11-03T14:14:32.271Z,31.20
2018-11-03T14:17:00.783Z,31.60
2018-11-03T14:19:29.123Z,31.80
2018-11-03T14:21:57.610Z,32.20
2018-11-03T14:24:25.987Z,32.80
2018-11-03T14:26:54.399Z,33.10
2018-11-03T14:29:22.710Z,33.50
2018-11-03T14:31:51.036Z,33.80
2018-11-03T14:34:19.366Z,34.00
2018-11-03T14:36:47.700Z,34.40
2018-11-03T14:39:16.014Z,34.40
2018-11-03T14:41:44.376Z,34.60
2018-11-03T14:44:12.733Z,35.10
2018-11-03T14:46:41.357Z,35.20
2018-11-03T14:49:09.672Z,35.40
2018-11-03T14:51:38.010Z,35.40
2018-11-03T14:54:06.520Z,35.50
2018-11-03T14:56:34.915Z,35.80
2018-11-03T14:59:03.197Z,36.00
2018-11-03T15:01:31.516Z,36.10
2018-11-03T15:03:59.804Z,36.20
2018-11-03T15:06:28.462Z,36.40
2018-11-03T15:08:56.781Z,36.50
2018-11-03T15:11:25.123Z,36.60
2018-11-03T15:13:53.711Z,36.70
2018-11-03T15:16:21.928Z,36.80
2018-11-03T15:18:50.229Z,36.90
2018-11-03T15:21:19.299Z,37.00
2018-11-03T15:23:48.012Z,37.00
2018-11-03T15:26:16.374Z,37.20
2018-11-03T15:28:44.723Z,37.30
2018-11-03T15:31:13.172Z,37.40
2018-11-03T15:33:41.558Z,37.50
2018-11-03T15:36:10.205Z,37.60
2018-11-03T15:38:38.644Z,37.60
2018-11-03T15:41:07.035Z,37.70
2018-11-03T15:43:35.355Z,37.90
2018-11-03T15:46:03.643Z,37.90
2018-11-03T15:48:31.944Z,38.00
2018-11-03T15:51:00.267Z,38.20
2018-11-03T15:53:28.597Z,38.30
2018-11-03T15:55:56.887Z,38.30
2018-11-03T15:58:25.247Z,38.50
2018-11-03T16:00:53.614Z,38.70
2018-11-03T16:03:21.916Z,38.60
2018-11-03T16:05:50.244Z,38.80
2018-11-03T16:08:18.551Z,38.90
2018-11-03T16:10:46.886Z,38.90
2018-11-03T16:13:15.180Z,39.00
2018-11-03T16:15:43.451Z,39.20
2018-11-03T16:18:11.769Z,39.40
2018-11-03T16:20:40.178Z,39.40
2018-11-03T16:23:08.508Z,39.50
2018-11-03T16:25:36.920Z,39.60
2018-11-03T16:28:05.668Z,39.70
2018-11-03T16:30:33.969Z,39.80
2018-11-03T16:33:02.314Z,40.00
2018-11-03T16:35:30.645Z,40.00
2018-11-03T16:37:58.952Z,40.10
2018-11-03T16:40:27.243Z,40.10
2018-11-03T16:42:55.533Z,40.10
2018-11-03T16:45:23.848Z,40.30
2018-11-03T16:47:52.150Z,40.40
2018-11-03T16:50:20.491Z,40.60
2018-11-03T16:52:48.809Z,40.70
2018-11-03T16:55:17.227Z,40.80
2018-11-03T16:57:45.519Z,41.00
2018-11-03T17:00:14.923Z,41.40
2018-11-03T17:02:43.373Z,41.70
2018-11-03T17:05:12.934Z,41.90
2018-11-03T17:07:41.253Z,42.10
2018-11-03T17:10:11.981Z,42.40
2018-11-03T17:12:41.555Z,42.50
2018-11-03T17:15:10.087Z,42.40
2018-11-03T17:17:38.668Z,42.30
2018-11-03T17:20:07.641Z,42.40
2018-11-03T17:22:36.029Z,42.20
2018-11-03T17:25:04.688Z,42.30
2018-11-03T17:27:32.996Z,42.40
2018-11-03T17:30:01.304Z,42.50
2018-11-03T17:32:29.717Z,42.40
2018-11-03T17:34:58.043Z,42.50
2018-11-03T17:37:26.321Z,42.40
2018-11-03T17:39:54.682Z,42.30
2018-11-03T17:42:22.979Z,42.30
2018-11-03T17:44:51.321Z,42.90
2018-11-03T17:47:19.631Z,42.40
2018-11-03T17:49:47.946Z,42.30
2018-11-03T17:52:16.373Z,42.50
2018-11-03T17:54:44.846Z,42.70
2018-11-03T17:57:13.119Z,42.70
2018-11-03T17:59:41.575Z,42.80
2018-11-03T18:02:10.038Z,43.50
2018-11-03T18:04:38.458Z,43.30
2018-11-03T18:07:06.888Z,43.40
2018-11-03T18:09:35.241Z,43.40
2018-11-03T18:12:03.728Z,43.30
2018-11-03T18:14:32.086Z,43.30
2018-11-03T18:17:00.385Z,43.20
2018-11-03T18:19:28.721Z,43.20
2018-11-03T18:21:57.088Z,43.20
2018-11-03T18:24:25.598Z,43.30
2018-11-03T18:26:53.959Z,43.90
2018-11-03T18:29:22.272Z,43.40
2018-11-03T18:31:50.571Z,43.30
2018-11-03T18:34:18.922Z,43.30
2018-11-03T18:36:47.192Z,43.20
2018-11-03T18:39:15.522Z,43.20
2018-11-03T18:41:44.038Z,43.10
2018-11-03T18:44:12.260Z,43.30
2018-11-03T18:46:40.661Z,43.30
2018-11-03T18:49:08.879Z,43.30
2018-11-03T18:51:37.245Z,43.30
2018-11-03T18:54:05.835Z,43.40
2018-11-03T18:56:34.270Z,43.50
2018-11-03T18:59:02.593Z,43.50
2018-11-03T19:01:30.916Z,43.50
2018-11-03T19:03:59.311Z,43.70
2018-11-03T19:06:27.632Z,44.30
2018-11-03T19:08:55.954Z,43.90
2018-11-03T19:11:24.252Z,43.90
2018-11-03T19:13:52.537Z,44.00
2018-11-03T19:16:20.846Z,44.00
2018-11-03T19:18:49.152Z,44.10
2018-11-03T19:21:17.510Z,43.90
2018-11-03T19:23:46.213Z,44.00
2018-11-03T19:26:14.292Z,44.10
2018-11-03T19:28:42.582Z,44.00
2018-11-03T19:31:10.951Z,44.00
2018-11-03T19:33:39.467Z,44.10
2018-11-03T19:36:07.840Z,44.10
2018-11-03T19:38:36.177Z,44.10
2018-11-03T19:41:04.510Z,44.30
2018-11-03T19:43:34.077Z,44.30
2018-11-03T19:46:02.644Z,44.40
2018-11-03T19:48:30.925Z,44.50
2018-11-03T19:50:59.385Z,44.40
2018-11-03T19:53:27.665Z,44.50
2018-11-03T19:55:56.106Z,44.70
2018-11-03T19:58:24.332Z,44.70
2018-11-03T20:00:52.775Z,44.60
2018-11-03T20:03:21.188Z,44.70
2018-11-03T20:05:49.627Z,44.80
2018-11-03T20:08:18.268Z,44.80
2018-11-03T20:10:46.655Z,45.00
2018-11-03T20:13:14.978Z,44.90
2018-11-03T20:15:43.440Z,45.00
2018-11-03T20:18:11.796Z,45.10
2018-11-03T20:20:40.649Z,45.10
2018-11-03T20:23:09.000Z,45.00
2018-11-03T20:25:37.371Z,45.10
2018-11-03T20:28:05.956Z,45.00
2018-11-03T20:30:34.249Z,45.10
2018-11-03T20:33:02.605Z,45.20
2018-11-03T20:35:31.078Z,45.40
2018-11-03T20:37:59.489Z,45.40
2018-11-03T20:40:27.945Z,45.40
2018-11-03T20:42:56.548Z,45.40
2018-11-03T20:45:24.938Z,45.30
2018-11-03T20:47:53.289Z,45.30
2018-11-03T20:50:21.587Z,45.20
2018-11-03T20:52:49.894Z,45.30
2018-11-03T20:55:18.189Z,45.20
2018-11-03T20:57:46.504Z,45.20
2018-11-03T21:00:16.069Z,45.20
2018-11-03T21:02:45.299Z,45.40
2018-11-03T21:05:13.836Z,45.60
2018-11-03T21:07:43.071Z,45.70
2018-11-03T21:10:11.443Z,45.60
2018-11-03T21:12:39.878Z,45.80
2018-11-03T21:15:08.440Z,45.90
2018-11-03T21:17:36.964Z,45.90
2018-11-03T21:20:05.550Z,45.80
2018-11-03T21:22:34.002Z,45.90
2018-11-03T21:25:02.376Z,45.90
2018-11-03T21:27:30.703Z,46.00
2018-11-03T21:29:59.142Z,45.90
2018-11-03T21:32:27.508Z,45.90
2018-11-03T21:34:55.853Z,46.00
2018-11-03T21:37:24.181Z,46.20
2018-11-03T21:39:52.848Z,46.20
2018-11-03T21:42:21.183Z,46.40
2018-11-03T21:44:49.576Z,46.30
2018-11-03T21:47:17.921Z,46.30
2018-11-03T21:49:46.270Z,46.50
2018-11-03T21:52:14.563Z,46.60
2018-11-03T21:54:43.116Z,46.50
2018-11-03T21:57:11.460Z,46.60
2018-11-03T21:59:39.861Z,46.70
2018-11-03T22:02:08.208Z,46.80
2018-11-03T22:04:36.802Z,46.80
2018-11-03T22:07:05.437Z,46.80
2018-11-03T22:09:33.870Z,47.00
2018-11-03T22:12:02.232Z,46.90
2018-11-03T22:14:30.661Z,46.80
2018-11-03T22:16:59.324Z,46.80
2018-11-03T22:19:27.695Z,46.90
2018-11-03T22:21:55.995Z,46.80
2018-11-03T22:24:24.305Z,46.90
2018-11-03T22:26:52.599Z,47.00
2018-11-03T22:29:21.161Z,47.00
2018-11-03T22:31:49.572Z,47.60
2018-11-03T22:34:17.987Z,47.00
2018-11-03T22:36:46.326Z,47.80
2018-11-03T22:39:14.782Z,47.10
2018-11-03T22:41:43.087Z,47.00
2018-11-03T22:44:11.445Z,46.90
2018-11-03T22:46:39.738Z,47.10
2018-11-03T22:49:08.063Z,47.20
2018-11-03T22:51:36.471Z,47.30
2018-11-03T22:54:05.348Z,47.20
2018-11-03T22:56:33.667Z,47.20
2018-11-03T22:59:01.990Z,47.20
2018-11-03T23:01:30.400Z,47.30
2018-11-03T23:03:59.032Z,47.30
2018-11-03T23:06:27.671Z,47.40
2018-11-03T23:08:56.194Z,47.30
2018-11-03T23:11:24.603Z,47.40
2018-11-03T23:13:53.199Z,47.30
2018-11-03T23:16:21.427Z,47.40
2018-11-03T23:18:49.835Z,47.50
2018-11-03T23:21:18.132Z,47.50
2018-11-03T23:23:46.656Z,47.60
2018-11-03T23:26:15.003Z,47.70
2018-11-03T23:28:43.344Z,47.60
2018-11-03T23:31:11.806Z,47.80
2018-11-03T23:33:40.229Z,47.80
2018-11-03T23:36:08.868Z,47.70
2018-11-03T23:38:37.229Z,47.70
2018-11-03T23:41:05.606Z,47.70
2018-11-03T23:43:33.921Z,47.70
2018-11-03T23:46:02.257Z,47.60
2018-11-03T23:48:30.580Z,47.60
2018-11-03T23:50:58.895Z,47.90
2018-11-03T23:53:27.318Z,47.60
2018-11-03T23:55:55.626Z,47.70
2018-11-03T23:58:23.928Z,47.80
